ADDS METAR Data INFO
IDs: Format: Raw Decoded Include TAF

Data at: 1308 UTC 19 Jul 2018

KSBY 191254Z 07006KT 10SM CLR 25/16 A3007 RMK AO2 SLP185 T02500161
KSBY 191154Z 04006KT 10SM SCT075 23/17 A3006 RMK AO2 SLP180 T02280167 10228 20189 53014
KSBY 191054Z 04003KT 10SM BKN075 21/17 A3004 RMK AO2 SLP175 T02060167
KSBY 190954Z 01004KT 7SM CLR 19/19 A3003 RMK AO2 SLP169 T01940189
KSBY 190854Z AUTO 00000KT 9SM CLR 20/19 A3002 RMK AO2 SLP166 T02000189 53005
KSBY 190754Z AUTO 06003KT 10SM FEW085 19/19 A3001 RMK AO2 SLP163 T01940189
KSBY 190654Z AUTO 00000KT 10SM OVC085 21/19 A3000 RMK AO2 SLP161 T02060194
KSBY 190554Z AUTO 00000KT 10SM BKN090 20/19 A3000 RMK AO2 SLP161 T02000189 10278 20200 53011
KSBY 190454Z AUTO 00000KT 10SM CLR 21/19 A2999 RMK AO2 SLP156 T02060194 403170206
KSBY 190354Z AUTO 05004KT 10SM BKN065 OVC085 22/20 A2998 RMK AO2 SLP154 T02170200
KSBY 190254Z AUTO 00000KT 10SM SCT070 22/19 A2997 RMK AO2 SLP150 T02170194 51013
KSBY 190154Z 13004KT 10SM CLR 23/19 A2996 RMK AO2 SLP147 T02280189
KSBY 190054Z 11006KT 10SM BKN060 OVC080 25/19 A2995 RMK AO2 SLP143 T02500189
KSBY 182354Z 34004KT 10SM CLR 28/16 A2993 RMK AO2 SLP136 T02780156 10317 20278 53009
KSBY 182254Z 29006KT 10SM CLR 29/14 A2991 RMK AO2 SLP132 T02940144
KSBY 182154Z 31008KT 10SM SCT070 31/15 A2990 RMK AO2 SLP128 T03060150
KSBY 182054Z 32012KT 10SM BKN070 31/13 A2990 RMK AO2 SLP127 T03060133 58004
KSBY 181954Z 28012KT 10SM SCT070 29/14 A2991 RMK AO2 SLP130 T02940144
KSBY 181854Z 31009G15KT 10SM BKN070 29/14 A2991 RMK AO2 SLP131 T02940144
KSBY 181754Z 34008KT 10SM BKN065 28/14 A2991 RMK AO2 SLP132 T02830144 10306 20233 56004
KSBY 181654Z 33007KT 280V030 10SM CLR 30/16 A2992 RMK AO2 SLP132 T03000161
KSBY 181554Z 31007KT 10SM CLR 28/17 A2992 RMK AO2 SLP133 T02780172
KSBY 181454Z 35005KT 10SM CLR 27/18 A2993 RMK AO2 SLP136 T02670178 50007
KSBY 181354Z 35007KT 10SM CLR 26/19 A2993 RMK AO2 SLP138 T02560189
KSBY 181254Z 36007KT 10SM CLR 24/21 A2993 RMK AO2 SLP138 T02440206
KSBY 181154Z 35005KT 10SM CLR 23/21 A2991 RMK AO2 SLP129 70007 T02330211 10233 20222 53022
KSBY 181054Z 35005KT 10SM CLR 22/22 A2988 RMK AO2 SLP119 T02220217
KSBY 181010Z 01008KT 7SM SCT008 22/22 A2986 RMK AO2 T02220222
KSBY 180954Z 36007KT 7SM OVC008 23/22 A2986 RMK AO2 CIG 007V012 SLP112 T02280222
KSBY 180854Z AUTO 32004KT 9SM BKN006 BKN014 23/23 A2984 RMK AO2 SLP106 T02280228 51003
KSBY 180850Z AUTO 33005KT 10SM SCT006 SCT014 23/23 A2984 RMK AO2
KSBY 180754Z AUTO 30006KT 8SM CLR 23/23 A2983 RMK AO2 SLP103 T02280228
KSBY 180654Z AUTO 28005KT 8SM CLR 23/23 A2983 RMK AO2 SLP102 T02280228
KSBY 180554Z AUTO 28004KT 10SM CLR 23/23 A2982 RMK AO2 SLP100 T02280228 10239 20228 51002
KSBY 180454Z AUTO 30003KT 9SM CLR 23/23 A2982 RMK AO2 SLP098 T02280228 403440228
KSBY 180426Z AUTO 33007KT 9SM FEW006 23/23 A2982 RMK AO2 T02330233
KSBY 180354Z AUTO 31005KT 7SM OVC004 23/23 A2983 RMK AO2 SLP101 T02330233
KSBY 180305Z AUTO 32005KT 7SM BKN004 BKN018 OVC033 24/24 A2983 RMK AO2 LTG DSNT E T02390239
KSBY 180254Z AUTO 34006KT 8SM SCT004 BKN018 OVC033 24/24 A2982 RMK AO2 SLP098 T02390239 56001
KSBY 180209Z 05003KT 10SM FEW003 OVC023 24/24 A2982 RMK AO2 T02390239
KSBY 180154Z 13004KT 10SM BKN023 OVC032 24/24 A2982 RMK AO2 SLP099 T02390239
KSBY 180126Z 11004KT 10SM SCT003 BKN026 OVC033 23/23 A2982 RMK AO2 LTG DSNT NE AND E T02330233